31A weather

Sugar Valley Airport
Mocksville, North Carolina, United States

Public forecast

Using degrees Fahrenheit for public forecast. Weather courtesy of forecast.io.

METAR (pilot weather report)

Closest report is Davidson County Airport, 15.9 nm (29.4 km) SE. Retrieved 2019/07/24 02:35 UTC (0 seconds ago):

KEXX 240235Z AUTO 00000KT 2 1/2SM BR CLR 18/18 A2996 RMK AO2 VIS 1 1/2V4 T01800180

TAF (pilot weather forecast)

Forecast is more than 12 hours old.

Closest forecast is Smith Reynolds Airport, 16.6 nm (30.8 km) ENE. Retrieved 2019/07/23 00:39 UTC (1 day ago):

TAF KINT 232335Z 2400/2424 05005KT P6SM SCT070 BKN250 FM241300 03009KT P6SM SCT050